sensor_id;sensor_type;location;lat;lon;timestamp;P1;durP1;ratioP1;P2;durP2;ratioP2
34505;SDS011;20748;42.632;23.198;2023-07-02T00:01:36;6.03;;;2.92;;
34505;SDS011;20748;42.632;23.198;2023-07-02T00:04:09;5.93;;;2.50;;
34505;SDS011;20748;42.632;23.198;2023-07-02T00:06:45;8.40;;;3.13;;
34505;SDS011;20748;42.632;23.198;2023-07-02T00:09:18;8.02;;;3.22;;
34505;SDS011;20748;42.632;23.198;2023-07-02T00:11:50;8.82;;;3.08;;
34505;SDS011;20748;42.632;23.198;2023-07-02T00:14:23;6.47;;;3.65;;
34505;SDS011;20748;42.632;23.198;2023-07-02T00:16:56;7.80;;;4.00;;
34505;SDS011;20748;42.632;23.198;2023-07-02T00:23:53;7.28;;;3.00;;
34505;SDS011;20748;42.632;23.198;2023-07-02T00:26:26;7.55;;;3.05;;
34505;SDS011;20748;42.632;23.198;2023-07-02T00:28:59;6.28;;;3.55;;
34505;SDS011;20748;42.632;23.198;2023-07-02T00:31:31;12.27;;;3.92;;
34505;SDS011;20748;42.632;23.198;2023-07-02T00:34:05;7.28;;;2.92;;
34505;SDS011;20748;42.632;23.198;2023-07-02T00:36:37;6.28;;;3.45;;
34505;SDS011;20748;42.632;23.198;2023-07-02T00:39:10;6.07;;;2.95;;
34505;SDS011;20748;42.632;23.198;2023-07-02T00:44:32;7.30;;;3.80;;
34505;SDS011;20748;42.632;23.198;2023-07-02T00:47:05;9.45;;;3.90;;
34505;SDS011;20748;42.632;23.198;2023-07-02T00:49:39;8.77;;;3.35;;
34505;SDS011;20748;42.632;23.198;2023-07-02T00:52:11;7.60;;;3.78;;
34505;SDS011;20748;42.632;23.198;2023-07-02T00:54:44;10.60;;;4.30;;
34505;SDS011;20748;42.632;23.198;2023-07-02T00:57:17;9.75;;;3.55;;
34505;SDS011;20748;42.632;23.198;2023-07-02T00:59:50;7.75;;;3.85;;
34505;SDS011;20748;42.632;23.198;2023-07-02T01:09:21;13.70;;;4.40;;
34505;SDS011;20748;42.632;23.198;2023-07-02T01:11:58;9.45;;;3.78;;
34505;SDS011;20748;42.632;23.198;2023-07-02T01:14:34;7.40;;;3.63;;
34505;SDS011;20748;42.632;23.198;2023-07-02T01:17:10;7.15;;;3.85;;
34505;SDS011;20748;42.632;23.198;2023-07-02T01:19:44;11.60;;;3.92;;
34505;SDS011;20748;42.632;23.198;2023-07-02T01:22:23;8.40;;;4.05;;
34505;SDS011;20748;42.632;23.198;2023-07-02T01:24:56;7.15;;;4.03;;
34505;SDS011;20748;42.632;23.198;2023-07-02T01:32:38;8.13;;;4.10;;
34505;SDS011;20748;42.632;23.198;2023-07-02T01:35:11;9.55;;;3.47;;
34505;SDS011;20748;42.632;23.198;2023-07-02T01:37:43;9.98;;;3.95;;
34505;SDS011;20748;42.632;23.198;2023-07-02T01:40:16;8.35;;;3.95;;
34505;SDS011;20748;42.632;23.198;2023-07-02T01:42:48;9.35;;;4.00;;
34505;SDS011;20748;42.632;23.198;2023-07-02T01:45:20;7.72;;;3.67;;
34505;SDS011;20748;42.632;23.198;2023-07-02T01:47:53;7.78;;;4.05;;
34505;SDS011;20748;42.632;23.198;2023-07-02T01:57:03;7.18;;;3.22;;
34505;SDS011;20748;42.632;23.198;2023-07-02T01:59:36;4.72;;;2.53;;
34505;SDS011;20748;42.632;23.198;2023-07-02T02:02:08;5.30;;;2.53;;
34505;SDS011;20748;42.632;23.198;2023-07-02T02:04:41;4.68;;;2.38;;
34505;SDS011;20748;42.632;23.198;2023-07-02T02:07:13;4.60;;;2.13;;
34505;SDS011;20748;42.632;23.198;2023-07-02T02:09:45;4.68;;;2.28;;
34505;SDS011;20748;42.632;23.198;2023-07-02T02:12:18;8.05;;;2.47;;
34505;SDS011;20748;42.632;23.198;2023-07-02T02:21:18;5.68;;;1.88;;
34505;SDS011;20748;42.632;23.198;2023-07-02T02:23:51;4.90;;;1.75;;
34505;SDS011;20748;42.632;23.198;2023-07-02T02:26:23;3.15;;;1.30;;
34505;SDS011;20748;42.632;23.198;2023-07-02T02:28:56;3.90;;;1.75;;
34505;SDS011;20748;42.632;23.198;2023-07-02T02:31:30;4.20;;;1.42;;
34505;SDS011;20748;42.632;23.198;2023-07-02T02:34:03;2.78;;;1.10;;
34505;SDS011;20748;42.632;23.198;2023-07-02T02:36:36;3.45;;;1.33;;
34505;SDS011;20748;42.632;23.198;2023-07-02T02:45:39;2.40;;;1.27;;
34505;SDS011;20748;42.632;23.198;2023-07-02T02:48:12;2.50;;;0.93;;
34505;SDS011;20748;42.632;23.198;2023-07-02T02:50:44;4.53;;;1.20;;
34505;SDS011;20748;42.632;23.198;2023-07-02T02:53:17;2.70;;;1.08;;
34505;SDS011;20748;42.632;23.198;2023-07-02T02:55:49;3.67;;;1.40;;
34505;SDS011;20748;42.632;23.198;2023-07-02T02:58:22;3.42;;;1.52;;
34505;SDS011;20748;42.632;23.198;2023-07-02T03:00:55;6.63;;;1.60;;
34505;SDS011;20748;42.632;23.198;2023-07-02T03:07:21;4.63;;;2.03;;
34505;SDS011;20748;42.632;23.198;2023-07-02T03:09:53;4.75;;;1.73;;
34505;SDS011;20748;42.632;23.198;2023-07-02T03:12:26;5.35;;;2.13;;
34505;SDS011;20748;42.632;23.198;2023-07-02T03:14:59;4.88;;;2.42;;
34505;SDS011;20748;42.632;23.198;2023-07-02T03:17:31;3.97;;;1.73;;
34505;SDS011;20748;42.632;23.198;2023-07-02T03:20:04;5.20;;;1.90;;
34505;SDS011;20748;42.632;23.198;2023-07-02T03:22:40;2.75;;;1.30;;
34505;SDS011;20748;42.632;23.198;2023-07-02T03:25:12;3.58;;;1.70;;
34505;SDS011;20748;42.632;23.198;2023-07-02T03:33:19;5.13;;;1.83;;
34505;SDS011;20748;42.632;23.198;2023-07-02T03:35:52;3.53;;;1.55;;
34505;SDS011;20748;42.632;23.198;2023-07-02T03:38:24;2.83;;;1.58;;
34505;SDS011;20748;42.632;23.198;2023-07-02T03:40:56;2.67;;;1.55;;
34505;SDS011;20748;42.632;23.198;2023-07-02T03:43:29;4.20;;;1.90;;
34505;SDS011;20748;42.632;23.198;2023-07-02T03:46:01;3.85;;;1.30;;
34505;SDS011;20748;42.632;23.198;2023-07-02T03:48:35;5.07;;;2.03;;
34505;SDS011;20748;42.632;23.198;2023-07-02T03:55:08;5.07;;;1.90;;
34505;SDS011;20748;42.632;23.198;2023-07-02T03:57:40;3.13;;;1.42;;
34505;SDS011;20748;42.632;23.198;2023-07-02T04:00:13;3.47;;;1.40;;
34505;SDS011;20748;42.632;23.198;2023-07-02T04:02:48;5.20;;;1.40;;
34505;SDS011;20748;42.632;23.198;2023-07-02T04:05:20;3.78;;;1.65;;
34505;SDS011;20748;42.632;23.198;2023-07-02T04:07:53;3.60;;;1.83;;
34505;SDS011;20748;42.632;23.198;2023-07-02T04:10:26;2.83;;;1.80;;
34505;SDS011;20748;42.632;23.198;2023-07-02T04:16:18;3.67;;;1.33;;
34505;SDS011;20748;42.632;23.198;2023-07-02T04:18:51;3.65;;;1.52;;
34505;SDS011;20748;42.632;23.198;2023-07-02T04:21:23;3.05;;;1.35;;
34505;SDS011;20748;42.632;23.198;2023-07-02T04:23:56;2.13;;;1.27;;
34505;SDS011;20748;42.632;23.198;2023-07-02T04:26:28;4.15;;;1.63;;
34505;SDS011;20748;42.632;23.198;2023-07-02T04:29:21;3.33;;;1.20;;
34505;SDS011;20748;42.632;23.198;2023-07-02T04:31:54;4.00;;;1.33;;
34505;SDS011;20748;42.632;23.198;2023-07-02T04:37:51;2.55;;;1.40;;
34505;SDS011;20748;42.632;23.198;2023-07-02T04:40:24;6.00;;;1.60;;
34505;SDS011;20748;42.632;23.198;2023-07-02T04:42:56;4.05;;;1.45;;
34505;SDS011;20748;42.632;23.198;2023-07-02T04:45:29;5.35;;;1.70;;
34505;SDS011;20748;42.632;23.198;2023-07-02T04:48:07;2.40;;;1.33;;
34505;SDS011;20748;42.632;23.198;2023-07-02T04:50:41;4.20;;;1.98;;
34505;SDS011;20748;42.632;23.198;2023-07-02T04:53:14;3.95;;;1.58;;
34505;SDS011;20748;42.632;23.198;2023-07-02T04:58:35;5.30;;;1.75;;
34505;SDS011;20748;42.632;23.198;2023-07-02T05:01:08;2.50;;;1.25;;
34505;SDS011;20748;42.632;23.198;2023-07-02T05:03:40;1.65;;;1.10;;
34505;SDS011;20748;42.632;23.198;2023-07-02T05:06:12;4.45;;;2.17;;
34505;SDS011;20748;42.632;23.198;2023-07-02T05:08:45;3.83;;;1.58;;
34505;SDS011;20748;42.632;23.198;2023-07-02T05:11:17;3.72;;;1.10;;
34505;SDS011;20748;42.632;23.198;2023-07-02T05:13:50;3.70;;;2.17;;
34505;SDS011;20748;42.632;23.198;2023-07-02T05:20:08;3.83;;;1.67;;
34505;SDS011;20748;42.632;23.198;2023-07-02T05:22:41;7.78;;;2.10;;
34505;SDS011;20748;42.632;23.198;2023-07-02T05:25:14;5.60;;;2.50;;
34505;SDS011;20748;42.632;23.198;2023-07-02T05:27:46;5.72;;;2.80;;
34505;SDS011;20748;42.632;23.198;2023-07-02T05:30:20;7.57;;;3.67;;
34505;SDS011;20748;42.632;23.198;2023-07-02T05:32:52;6.53;;;3.08;;
34505;SDS011;20748;42.632;23.198;2023-07-02T05:35:26;8.27;;;3.60;;
34505;SDS011;20748;42.632;23.198;2023-07-02T05:44:24;12.27;;;4.93;;
34505;SDS011;20748;42.632;23.198;2023-07-02T05:46:56;7.93;;;4.07;;
34505;SDS011;20748;42.632;23.198;2023-07-02T05:49:28;4.88;;;2.20;;
34505;SDS011;20748;42.632;23.198;2023-07-02T05:52:01;5.03;;;2.42;;
34505;SDS011;20748;42.632;23.198;2023-07-02T05:54:33;5.82;;;2.72;;
34505;SDS011;20748;42.632;23.198;2023-07-02T05:57:06;6.43;;;2.30;;
34505;SDS011;20748;42.632;23.198;2023-07-02T05:59:39;4.35;;;1.60;;
34505;SDS011;20748;42.632;23.198;2023-07-02T06:05:41;5.35;;;2.30;;
34505;SDS011;20748;42.632;23.198;2023-07-02T06:08:13;3.17;;;1.63;;
34505;SDS011;20748;42.632;23.198;2023-07-02T06:10:46;3.47;;;1.83;;
34505;SDS011;20748;42.632;23.198;2023-07-02T06:13:20;4.45;;;1.95;;
34505;SDS011;20748;42.632;23.198;2023-07-02T06:15:52;5.43;;;2.30;;
34505;SDS011;20748;42.632;23.198;2023-07-02T06:18:25;4.53;;;2.33;;
34505;SDS011;20748;42.632;23.198;2023-07-02T06:20:58;3.72;;;1.83;;
34505;SDS011;20748;42.632;23.198;2023-07-02T06:30:07;5.53;;;2.67;;
34505;SDS011;20748;42.632;23.198;2023-07-02T06:32:40;4.03;;;1.70;;
34505;SDS011;20748;42.632;23.198;2023-07-02T06:35:13;5.35;;;2.00;;
34505;SDS011;20748;42.632;23.198;2023-07-02T06:37:45;3.47;;;1.55;;
34505;SDS011;20748;42.632;23.198;2023-07-02T06:40:18;6.63;;;2.30;;
34505;SDS011;20748;42.632;23.198;2023-07-02T06:42:50;4.20;;;1.67;;
34505;SDS011;20748;42.632;23.198;2023-07-02T06:45:23;3.80;;;1.80;;
34505;SDS011;20748;42.632;23.198;2023-07-02T06:53:15;4.15;;;2.00;;
34505;SDS011;20748;42.632;23.198;2023-07-02T06:55:48;4.38;;;1.75;;
34505;SDS011;20748;42.632;23.198;2023-07-02T06:58:20;4.93;;;1.95;;
34505;SDS011;20748;42.632;23.198;2023-07-02T07:00:53;3.35;;;1.92;;
34505;SDS011;20748;42.632;23.198;2023-07-02T07:03:25;4.97;;;1.88;;
34505;SDS011;20748;42.632;23.198;2023-07-02T07:05:57;4.75;;;2.38;;
34505;SDS011;20748;42.632;23.198;2023-07-02T07:08:30;5.20;;;1.92;;
34505;SDS011;20748;42.632;23.198;2023-07-02T07:11:03;2.63;;;1.67;;
34505;SDS011;20748;42.632;23.198;2023-07-02T07:13:56;3.13;;;1.65;;
34505;SDS011;20748;42.632;23.198;2023-07-02T07:16:29;4.05;;;1.98;;
34505;SDS011;20748;42.632;23.198;2023-07-02T07:19:01;4.47;;;1.83;;
34505;SDS011;20748;42.632;23.198;2023-07-02T07:21:34;4.88;;;2.03;;
34505;SDS011;20748;42.632;23.198;2023-07-02T07:24:06;4.07;;;1.85;;
34505;SDS011;20748;42.632;23.198;2023-07-02T07:26:38;3.10;;;1.55;;
34505;SDS011;20748;42.632;23.198;2023-07-02T07:29:11;3.85;;;1.75;;
34505;SDS011;20748;42.632;23.198;2023-07-02T07:34:37;3.40;;;1.48;;
34505;SDS011;20748;42.632;23.198;2023-07-02T07:37:10;3.10;;;1.50;;
34505;SDS011;20748;42.632;23.198;2023-07-02T07:39:42;8.00;;;2.65;;
34505;SDS011;20748;42.632;23.198;2023-07-02T07:42:14;3.22;;;1.60;;
34505;SDS011;20748;42.632;23.198;2023-07-02T07:44:48;3.97;;;1.33;;
34505;SDS011;20748;42.632;23.198;2023-07-02T07:47:20;3.05;;;1.73;;
34505;SDS011;20748;42.632;23.198;2023-07-02T07:49:54;4.70;;;2.30;;
34505;SDS011;20748;42.632;23.198;2023-07-02T07:57:46;4.07;;;2.20;;
34505;SDS011;20748;42.632;23.198;2023-07-02T08:00:19;3.97;;;1.65;;
34505;SDS011;20748;42.632;23.198;2023-07-02T08:02:51;3.58;;;1.60;;
34505;SDS011;20748;42.632;23.198;2023-07-02T08:05:26;4.15;;;2.00;;
34505;SDS011;20748;42.632;23.198;2023-07-02T08:07:59;3.78;;;2.13;;
34505;SDS011;20748;42.632;23.198;2023-07-02T08:10:32;6.13;;;2.15;;
34505;SDS011;20748;42.632;23.198;2023-07-02T08:13:05;4.10;;;2.00;;
34505;SDS011;20748;42.632;23.198;2023-07-02T08:22:44;5.40;;;2.72;;
34505;SDS011;20748;42.632;23.198;2023-07-02T08:25:17;12.68;;;5.70;;
34505;SDS011;20748;42.632;23.198;2023-07-02T08:27:49;4.35;;;2.50;;
34505;SDS011;20748;42.632;23.198;2023-07-02T08:30:22;4.68;;;2.65;;
34505;SDS011;20748;42.632;23.198;2023-07-02T08:32:55;7.47;;;1.98;;
34505;SDS011;20748;42.632;23.198;2023-07-02T08:35:27;3.45;;;1.65;;
34505;SDS011;20748;42.632;23.198;2023-07-02T08:38:00;6.15;;;4.10;;
34505;SDS011;20748;42.632;23.198;2023-07-02T08:40:33;5.43;;;4.10;;
34505;SDS011;20748;42.632;23.198;2023-07-02T08:48:34;4.82;;;2.78;;
34505;SDS011;20748;42.632;23.198;2023-07-02T08:51:07;3.70;;;2.08;;
34505;SDS011;20748;42.632;23.198;2023-07-02T08:53:39;5.05;;;1.90;;
34505;SDS011;20748;42.632;23.198;2023-07-02T08:56:12;4.90;;;2.20;;
34505;SDS011;20748;42.632;23.198;2023-07-02T08:58:44;2.45;;;1.30;;
34505;SDS011;20748;42.632;23.198;2023-07-02T09:01:16;5.40;;;3.42;;
34505;SDS011;20748;42.632;23.198;2023-07-02T09:03:50;9.45;;;5.47;;
34505;SDS011;20748;42.632;23.198;2023-07-02T09:15:45;3.85;;;1.73;;
34505;SDS011;20748;42.632;23.198;2023-07-02T09:18:18;3.67;;;1.95;;
34505;SDS011;20748;42.632;23.198;2023-07-02T09:20:51;3.50;;;1.90;;
34505;SDS011;20748;42.632;23.198;2023-07-02T09:23:33;2.38;;;1.10;;
34505;SDS011;20748;42.632;23.198;2023-07-02T09:26:08;3.42;;;1.40;;
34505;SDS011;20748;42.632;23.198;2023-07-02T09:28:59;3.90;;;1.50;;
34505;SDS011;20748;42.632;23.198;2023-07-02T09:31:43;3.42;;;1.63;;
34505;SDS011;20748;42.632;23.198;2023-07-02T09:39:55;3.20;;;1.60;;
34505;SDS011;20748;42.632;23.198;2023-07-02T09:42:28;14.88;;;9.43;;
34505;SDS011;20748;42.632;23.198;2023-07-02T09:45:01;7.57;;;5.35;;
34505;SDS011;20748;42.632;23.198;2023-07-02T09:47:37;14.70;;;7.65;;
34505;SDS011;20748;42.632;23.198;2023-07-02T09:50:14;3.72;;;1.92;;
34505;SDS011;20748;42.632;23.198;2023-07-02T09:52:49;4.10;;;1.40;;
34505;SDS011;20748;42.632;23.198;2023-07-02T09:55:23;4.22;;;2.60;;
34505;SDS011;20748;42.632;23.198;2023-07-02T10:00:56;3.53;;;1.80;;
34505;SDS011;20748;42.632;23.198;2023-07-02T10:03:29;4.00;;;1.80;;
34505;SDS011;20748;42.632;23.198;2023-07-02T10:06:03;3.83;;;1.70;;
34505;SDS011;20748;42.632;23.198;2023-07-02T10:08:36;4.03;;;2.15;;
34505;SDS011;20748;42.632;23.198;2023-07-02T10:11:09;3.25;;;1.60;;
34505;SDS011;20748;42.632;23.198;2023-07-02T10:13:42;4.20;;;1.85;;
34505;SDS011;20748;42.632;23.198;2023-07-02T10:16:15;3.63;;;1.80;;
34505;SDS011;20748;42.632;23.198;2023-07-02T10:22:49;3.40;;;1.75;;
34505;SDS011;20748;42.632;23.198;2023-07-02T10:25:24;3.30;;;1.73;;
34505;SDS011;20748;42.632;23.198;2023-07-02T10:27:57;3.75;;;1.75;;
34505;SDS011;20748;42.632;23.198;2023-07-02T10:30:31;4.07;;;1.80;;
34505;SDS011;20748;42.632;23.198;2023-07-02T10:33:08;4.35;;;1.83;;
34505;SDS011;20748;42.632;23.198;2023-07-02T10:35:42;5.70;;;2.25;;
34505;SDS011;20748;42.632;23.198;2023-07-02T10:38:19;6.88;;;2.72;;
34505;SDS011;20748;42.632;23.198;2023-07-02T10:47:33;11.30;;;5.93;;
34505;SDS011;20748;42.632;23.198;2023-07-02T10:50:13;16.58;;;8.20;;
34505;SDS011;20748;42.632;23.198;2023-07-02T10:52:47;4.47;;;2.45;;
34505;SDS011;20748;42.632;23.198;2023-07-02T10:55:22;7.03;;;3.45;;
34505;SDS011;20748;42.632;23.198;2023-07-02T10:58:02;19.60;;;8.55;;
34505;SDS011;20748;42.632;23.198;2023-07-02T11:00:45;29.95;;;11.65;;
34505;SDS011;20748;42.632;23.198;2023-07-02T11:03:18;9.18;;;4.25;;
34505;SDS011;20748;42.632;23.198;2023-07-02T11:13:32;4.45;;;2.28;;
34505;SDS011;20748;42.632;23.198;2023-07-02T11:16:05;5.47;;;2.67;;
34505;SDS011;20748;42.632;23.198;2023-07-02T11:18:37;10.77;;;4.70;;
34505;SDS011;20748;42.632;23.198;2023-07-02T11:21:10;5.47;;;2.78;;
34505;SDS011;20748;42.632;23.198;2023-07-02T11:23:42;15.32;;;9.23;;
34505;SDS011;20748;42.632;23.198;2023-07-02T11:26:14;9.32;;;6.10;;
34505;SDS011;20748;42.632;23.198;2023-07-02T11:28:48;6.78;;;3.40;;
34505;SDS011;20748;42.632;23.198;2023-07-02T11:34:53;6.25;;;2.42;;
34505;SDS011;20748;42.632;23.198;2023-07-02T11:37:26;4.97;;;2.22;;
34505;SDS011;20748;42.632;23.198;2023-07-02T11:39:59;5.93;;;2.30;;
34505;SDS011;20748;42.632;23.198;2023-07-02T11:42:32;4.72;;;2.45;;
34505;SDS011;20748;42.632;23.198;2023-07-02T11:45:05;3.67;;;2.10;;
34505;SDS011;20748;42.632;23.198;2023-07-02T11:47:38;5.90;;;1.90;;
34505;SDS011;20748;42.632;23.198;2023-07-02T11:50:11;5.25;;;1.83;;
34505;SDS011;20748;42.632;23.198;2023-07-02T11:58:18;5.38;;;2.10;;
34505;SDS011;20748;42.632;23.198;2023-07-02T12:00:50;5.43;;;2.78;;
34505;SDS011;20748;42.632;23.198;2023-07-02T12:03:23;7.50;;;2.30;;
34505;SDS011;20748;42.632;23.198;2023-07-02T12:05:55;3.70;;;1.85;;
34505;SDS011;20748;42.632;23.198;2023-07-02T12:08:27;4.90;;;2.30;;
34505;SDS011;20748;42.632;23.198;2023-07-02T12:11:00;5.45;;;3.10;;
34505;SDS011;20748;42.632;23.198;2023-07-02T12:13:33;5.38;;;2.70;;
34505;SDS011;20748;42.632;23.198;2023-07-02T12:21:23;4.15;;;2.10;;
34505;SDS011;20748;42.632;23.198;2023-07-02T12:23:55;7.05;;;2.72;;
34505;SDS011;20748;42.632;23.198;2023-07-02T12:26:28;7.43;;;3.30;;
34505;SDS011;20748;42.632;23.198;2023-07-02T12:29:00;4.68;;;2.60;;
34505;SDS011;20748;42.632;23.198;2023-07-02T12:31:33;4.90;;;2.70;;
34505;SDS011;20748;42.632;23.198;2023-07-02T12:34:05;6.43;;;2.88;;
34505;SDS011;20748;42.632;23.198;2023-07-02T12:36:38;5.28;;;2.63;;
34505;SDS011;20748;42.632;23.198;2023-07-02T12:45:47;6.03;;;2.72;;
34505;SDS011;20748;42.632;23.198;2023-07-02T12:48:20;6.38;;;2.70;;
34505;SDS011;20748;42.632;23.198;2023-07-02T12:50:53;4.95;;;2.50;;
34505;SDS011;20748;42.632;23.198;2023-07-02T12:53:26;8.32;;;3.25;;
34505;SDS011;20748;42.632;23.198;2023-07-02T12:55:59;4.78;;;2.83;;
34505;SDS011;20748;42.632;23.198;2023-07-02T12:58:32;5.05;;;2.55;;
34505;SDS011;20748;42.632;23.198;2023-07-02T13:01:05;4.57;;;2.35;;
34505;SDS011;20748;42.632;23.198;2023-07-02T13:13:04;5.20;;;2.55;;
34505;SDS011;20748;42.632;23.198;2023-07-02T13:15:53;6.50;;;3.35;;
34505;SDS011;20748;42.632;23.198;2023-07-02T13:18:26;4.57;;;2.67;;
34505;SDS011;20748;42.632;23.198;2023-07-02T13:20:58;6.07;;;3.22;;
34505;SDS011;20748;42.632;23.198;2023-07-02T13:23:31;7.18;;;3.83;;
34505;SDS011;20748;42.632;23.198;2023-07-02T13:26:03;6.35;;;3.25;;
34505;SDS011;20748;42.632;23.198;2023-07-02T13:28:36;10.90;;;6.65;;
34505;SDS011;20748;42.632;23.198;2023-07-02T13:35:07;6.13;;;3.20;;
34505;SDS011;20748;42.632;23.198;2023-07-02T13:37:39;9.10;;;3.90;;
34505;SDS011;20748;42.632;23.198;2023-07-02T13:40:12;8.98;;;5.38;;
34505;SDS011;20748;42.632;23.198;2023-07-02T13:42:46;6.82;;;3.40;;
34505;SDS011;20748;42.632;23.198;2023-07-02T13:45:19;7.38;;;3.47;;
34505;SDS011;20748;42.632;23.198;2023-07-02T13:47:51;6.72;;;3.10;;
34505;SDS011;20748;42.632;23.198;2023-07-02T13:50:24;6.13;;;3.22;;
34505;SDS011;20748;42.632;23.198;2023-07-02T13:56:08;6.70;;;2.92;;
34505;SDS011;20748;42.632;23.198;2023-07-02T13:58:57;8.65;;;3.67;;
34505;SDS011;20748;42.632;23.198;2023-07-02T14:01:31;7.07;;;3.33;;
34505;SDS011;20748;42.632;23.198;2023-07-02T14:04:05;5.78;;;3.22;;
34505;SDS011;20748;42.632;23.198;2023-07-02T14:06:37;7.03;;;3.30;;
34505;SDS011;20748;42.632;23.198;2023-07-02T14:09:11;4.40;;;2.33;;
34505;SDS011;20748;42.632;23.198;2023-07-02T14:11:43;6.28;;;3.10;;
34505;SDS011;20748;42.632;23.198;2023-07-02T14:20:21;7.97;;;3.83;;
34505;SDS011;20748;42.632;23.198;2023-07-02T14:22:54;8.13;;;3.70;;
34505;SDS011;20748;42.632;23.198;2023-07-02T14:25:26;7.05;;;3.28;;
34505;SDS011;20748;42.632;23.198;2023-07-02T14:28:12;6.30;;;3.53;;
34505;SDS011;20748;42.632;23.198;2023-07-02T14:30:45;8.73;;;4.80;;
34505;SDS011;20748;42.632;23.198;2023-07-02T14:33:18;6.95;;;4.10;;
34505;SDS011;20748;42.632;23.198;2023-07-02T14:35:51;9.75;;;4.40;;
34505;SDS011;20748;42.632;23.198;2023-07-02T14:41:17;12.50;;;6.00;;
34505;SDS011;20748;42.632;23.198;2023-07-02T14:43:49;21.38;;;9.02;;
34505;SDS011;20748;42.632;23.198;2023-07-02T14:46:22;10.98;;;5.50;;
34505;SDS011;20748;42.632;23.198;2023-07-02T14:59:28;6.32;;;3.50;;
34505;SDS011;20748;42.632;23.198;2023-07-02T15:02:01;8.32;;;4.45;;
34505;SDS011;20748;42.632;23.198;2023-07-02T15:04:33;7.28;;;3.92;;
34505;SDS011;20748;42.632;23.198;2023-07-02T15:07:06;7.05;;;3.40;;
34505;SDS011;20748;42.632;23.198;2023-07-02T15:09:38;8.98;;;4.68;;
34505;SDS011;20748;42.632;23.198;2023-07-02T15:12:11;7.35;;;3.55;;
34505;SDS011;20748;42.632;23.198;2023-07-02T15:14:44;7.45;;;4.13;;
34505;SDS011;20748;42.632;23.198;2023-07-02T15:21:15;5.05;;;2.60;;
34505;SDS011;20748;42.632;23.198;2023-07-02T15:23:48;7.90;;;3.53;;
34505;SDS011;20748;42.632;23.198;2023-07-02T15:26:20;8.65;;;4.00;;
34505;SDS011;20748;42.632;23.198;2023-07-02T15:28:53;5.95;;;3.05;;
34505;SDS011;20748;42.632;23.198;2023-07-02T15:31:25;8.05;;;3.47;;
34505;SDS011;20748;42.632;23.198;2023-07-02T15:33:57;6.70;;;2.83;;
34505;SDS011;20748;42.632;23.198;2023-07-02T15:36:30;7.38;;;3.75;;
34505;SDS011;20748;42.632;23.198;2023-07-02T15:44:26;7.00;;;3.47;;
34505;SDS011;20748;42.632;23.198;2023-07-02T15:46:59;7.15;;;4.30;;
34505;SDS011;20748;42.632;23.198;2023-07-02T15:49:32;9.52;;;4.20;;
34505;SDS011;20748;42.632;23.198;2023-07-02T15:52:05;7.15;;;3.65;;
34505;SDS011;20748;42.632;23.198;2023-07-02T15:54:38;6.53;;;3.42;;
34505;SDS011;20748;42.632;23.198;2023-07-02T15:57:10;8.75;;;4.10;;
34505;SDS011;20748;42.632;23.198;2023-07-02T15:59:43;6.95;;;3.67;;
34505;SDS011;20748;42.632;23.198;2023-07-02T16:05:58;8.13;;;4.07;;
34505;SDS011;20748;42.632;23.198;2023-07-02T16:08:32;6.07;;;3.00;;
34505;SDS011;20748;42.632;23.198;2023-07-02T16:11:04;5.95;;;3.25;;
34505;SDS011;20748;42.632;23.198;2023-07-02T16:13:38;7.93;;;4.20;;
34505;SDS011;20748;42.632;23.198;2023-07-02T16:16:12;7.10;;;2.88;;
34505;SDS011;20748;42.632;23.198;2023-07-02T16:18:44;6.22;;;3.30;;
34505;SDS011;20748;42.632;23.198;2023-07-02T16:21:18;7.22;;;5.13;;
34505;SDS011;20748;42.632;23.198;2023-07-02T16:28:26;9.35;;;3.17;;
34505;SDS011;20748;42.632;23.198;2023-07-02T16:30:59;7.07;;;3.70;;
34505;SDS011;20748;42.632;23.198;2023-07-02T16:33:32;9.50;;;3.90;;
34505;SDS011;20748;42.632;23.198;2023-07-02T16:36:07;7.90;;;4.13;;
34505;SDS011;20748;42.632;23.198;2023-07-02T16:38:41;6.75;;;3.17;;
34505;SDS011;20748;42.632;23.198;2023-07-02T16:41:14;7.15;;;3.63;;
34505;SDS011;20748;42.632;23.198;2023-07-02T16:43:47;7.85;;;3.45;;
34505;SDS011;20748;42.632;23.198;2023-07-02T16:46:21;9.13;;;4.25;;
34505;SDS011;20748;42.632;23.198;2023-07-02T16:48:54;13.32;;;7.68;;
34505;SDS011;20748;42.632;23.198;2023-07-02T16:59:07;6.60;;;3.92;;
34505;SDS011;20748;42.632;23.198;2023-07-02T17:01:40;8.77;;;3.35;;
34505;SDS011;20748;42.632;23.198;2023-07-02T17:04:12;7.50;;;3.63;;
34505;SDS011;20748;42.632;23.198;2023-07-02T17:06:46;7.30;;;3.80;;
34505;SDS011;20748;42.632;23.198;2023-07-02T17:09:21;7.07;;;3.88;;
34505;SDS011;20748;42.632;23.198;2023-07-02T17:11:56;7.88;;;3.95;;
34505;SDS011;20748;42.632;23.198;2023-07-02T17:14:33;9.35;;;5.45;;
34505;SDS011;20748;42.632;23.198;2023-07-02T17:24:49;7.65;;;4.25;;
34505;SDS011;20748;42.632;23.198;2023-07-02T17:27:24;8.70;;;4.25;;
34505;SDS011;20748;42.632;23.198;2023-07-02T17:29:59;7.63;;;3.67;;
34505;SDS011;20748;42.632;23.198;2023-07-02T17:32:33;10.70;;;4.30;;
34505;SDS011;20748;42.632;23.198;2023-07-02T17:35:06;7.93;;;4.15;;
34505;SDS011;20748;42.632;23.198;2023-07-02T17:37:45;7.22;;;4.40;;
34505;SDS011;20748;42.632;23.198;2023-07-02T17:40:18;8.85;;;4.55;;
34505;SDS011;20748;42.632;23.198;2023-07-02T17:49:27;7.78;;;3.80;;
34505;SDS011;20748;42.632;23.198;2023-07-02T17:52:00;6.93;;;3.70;;
34505;SDS011;20748;42.632;23.198;2023-07-02T17:54:33;9.82;;;3.92;;
34505;SDS011;20748;42.632;23.198;2023-07-02T17:57:09;8.27;;;4.28;;
34505;SDS011;20748;42.632;23.198;2023-07-02T17:59:42;8.27;;;4.57;;
34505;SDS011;20748;42.632;23.198;2023-07-02T18:02:15;5.80;;;3.22;;
34505;SDS011;20748;42.632;23.198;2023-07-02T18:04:49;6.05;;;3.22;;
34505;SDS011;20748;42.632;23.198;2023-07-02T18:10:11;5.97;;;3.60;;
34505;SDS011;20748;42.632;23.198;2023-07-02T18:12:43;8.48;;;4.32;;
34505;SDS011;20748;42.632;23.198;2023-07-02T18:15:16;10.85;;;3.65;;
34505;SDS011;20748;42.632;23.198;2023-07-02T18:17:48;7.53;;;4.45;;
34505;SDS011;20748;42.632;23.198;2023-07-02T18:20:21;9.70;;;4.63;;
34505;SDS011;20748;42.632;23.198;2023-07-02T18:22:54;6.20;;;3.47;;
34505;SDS011;20748;42.632;23.198;2023-07-02T18:25:27;11.10;;;4.80;;
34505;SDS011;20748;42.632;23.198;2023-07-02T18:35:41;6.80;;;4.20;;
34505;SDS011;20748;42.632;23.198;2023-07-02T18:38:14;12.05;;;4.28;;
34505;SDS011;20748;42.632;23.198;2023-07-02T18:40:47;8.88;;;4.22;;
34505;SDS011;20748;42.632;23.198;2023-07-02T18:43:19;7.18;;;3.88;;
34505;SDS011;20748;42.632;23.198;2023-07-02T18:45:52;7.90;;;3.33;;
34505;SDS011;20748;42.632;23.198;2023-07-02T18:48:24;7.68;;;4.50;;
34505;SDS011;20748;42.632;23.198;2023-07-02T18:50:58;7.25;;;4.20;;
34505;SDS011;20748;42.632;23.198;2023-07-02T18:56:19;7.43;;;3.85;;
34505;SDS011;20748;42.632;23.198;2023-07-02T18:58:52;9.30;;;4.93;;
34505;SDS011;20748;42.632;23.198;2023-07-02T19:01:24;9.57;;;4.20;;
34505;SDS011;20748;42.632;23.198;2023-07-02T19:03:56;5.85;;;3.75;;
34505;SDS011;20748;42.632;23.198;2023-07-02T19:06:29;7.53;;;4.93;;
34505;SDS011;20748;42.632;23.198;2023-07-02T19:09:01;7.30;;;4.35;;
34505;SDS011;20748;42.632;23.198;2023-07-02T19:11:34;7.70;;;4.35;;
34505;SDS011;20748;42.632;23.198;2023-07-02T19:21:06;8.00;;;3.75;;
34505;SDS011;20748;42.632;23.198;2023-07-02T19:23:45;10.82;;;5.10;;
34505;SDS011;20748;42.632;23.198;2023-07-02T19:26:20;9.02;;;4.97;;
34505;SDS011;20748;42.632;23.198;2023-07-02T19:28:53;10.68;;;4.55;;
34505;SDS011;20748;42.632;23.198;2023-07-02T19:31:26;7.43;;;3.65;;